createdAt,value
2023-11-03T10:06:54.094Z,1.88
2023-11-03T10:09:56.439Z,2.05
2023-11-03T10:12:58.853Z,1.67
2023-11-03T10:16:03.166Z,2.13
2023-11-03T10:19:06.019Z,2.20
2023-11-03T10:22:10.676Z,1.98
2023-11-03T10:25:13.208Z,2.47
2023-11-03T10:28:15.886Z,2.40
2023-11-03T10:31:21.166Z,2.50
2023-11-03T10:34:24.676Z,2.33
2023-11-03T10:37:28.848Z,2.30
2023-11-03T10:40:31.524Z,2.55
2023-11-03T10:43:38.451Z,2.37
2023-11-03T10:46:43.437Z,2.63
2023-11-03T10:49:47.645Z,2.78
2023-11-03T10:52:58.697Z,2.55
2023-11-03T10:56:22.321Z,2.17
2023-11-03T10:59:34.392Z,2.10
2023-11-03T11:02:42.080Z,1.83
2023-11-03T11:05:52.917Z,1.77
2023-11-03T11:09:10.216Z,2.65
2023-11-03T11:12:14.551Z,2.50
2023-11-03T11:15:22.736Z,1.37
2023-11-03T11:18:26.490Z,1.83
2023-11-03T11:21:35.893Z,2.00
2023-11-03T11:24:40.077Z,2.17
2023-11-03T11:27:44.718Z,1.98
2023-11-03T11:30:47.042Z,0.57
2023-11-03T11:34:12.000Z,2.20
2023-11-03T11:37:32.524Z,2.20
2023-11-03T11:40:34.868Z,1.88
2023-11-03T11:43:45.077Z,1.95
2023-11-03T11:46:54.075Z,1.47
2023-11-03T11:49:56.349Z,1.52
2023-11-03T11:52:58.606Z,1.90
2023-11-03T11:56:01.856Z,0.60
2023-11-03T11:59:07.559Z,0.82
2023-11-03T12:02:09.967Z,0.50
2023-11-03T12:05:17.682Z,0.60
2023-11-03T12:08:23.272Z,0.47
2023-11-03T12:11:27.631Z,0.90
2023-11-03T12:14:30.169Z,0.73
2023-11-03T12:17:32.484Z,1.00
2023-11-03T12:20:35.825Z,0.80
2023-11-03T12:23:40.442Z,0.93
2023-11-03T12:26:42.732Z,0.90
2023-11-03T12:29:45.710Z,0.88
2023-11-03T12:32:54.823Z,1.00
2023-11-03T12:36:06.086Z,0.85
2023-11-03T12:39:08.683Z,0.90
2023-11-03T12:42:12.173Z,0.90
2023-11-03T12:45:19.719Z,0.90
2023-11-03T12:48:23.530Z,0.70
2023-11-03T12:51:31.416Z,0.80
2023-11-03T12:54:36.445Z,0.77
2023-11-03T12:57:43.178Z,0.93
2023-11-03T13:00:50.277Z,0.82
2023-11-03T13:04:14.818Z,0.60
2023-11-03T13:07:17.249Z,0.70
2023-11-03T13:10:22.088Z,0.60
2023-11-03T13:13:24.684Z,1.00
2023-11-03T13:16:27.208Z,0.68
2023-11-03T13:19:29.544Z,0.70
2023-11-03T13:22:32.725Z,0.70
2023-11-03T13:25:38.934Z,0.75
2023-11-03T13:28:41.448Z,0.75
2023-11-03T13:31:44.162Z,0.75
2023-11-03T13:34:46.644Z,0.90
2023-11-03T13:37:51.804Z,0.50
2023-11-03T13:40:54.925Z,1.17
2023-11-03T13:44:01.959Z,0.98
2023-11-03T13:47:04.565Z,0.80
2023-11-03T13:50:20.839Z,0.80
2023-11-03T13:53:25.005Z,0.57
2023-11-03T13:56:28.318Z,0.60
2023-11-03T13:59:32.959Z,0.50
2023-11-03T14:02:35.258Z,0.50
2023-11-03T14:05:40.840Z,0.63
2023-11-03T14:08:43.083Z,0.70
2023-11-03T14:11:49.406Z,0.70
2023-11-03T14:14:51.822Z,0.47
2023-11-03T14:17:54.129Z,0.50
2023-11-03T14:20:59.712Z,0.50
2023-11-03T14:24:12.915Z,0.50
2023-11-03T14:27:19.084Z,0.80
2023-11-03T14:30:21.854Z,0.55
2023-11-03T14:33:30.125Z,0.80
2023-11-03T14:36:44.267Z,0.80
2023-11-03T14:39:48.174Z,0.77
2023-11-03T14:42:50.505Z,0.57
2023-11-03T14:45:55.064Z,0.80
2023-11-03T14:48:58.250Z,1.30
2023-11-03T14:52:04.309Z,0.60
2023-11-03T14:55:07.943Z,0.68
2023-11-03T14:58:13.482Z,0.47
2023-11-03T15:01:16.967Z,0.70
2023-11-03T15:04:19.271Z,0.50
2023-11-03T15:07:23.747Z,0.60
2023-11-03T15:10:27.601Z,0.73
2023-11-03T15:13:29.836Z,0.80
2023-11-03T15:16:32.826Z,0.60
2023-11-03T15:19:38.986Z,0.43
2023-11-03T15:22:41.705Z,0.50
2023-11-03T15:25:44.017Z,0.52
2023-11-03T15:28:47.324Z,0.57
2023-11-03T15:31:49.635Z,0.47
2023-11-03T15:34:54.328Z,0.55
2023-11-03T15:38:01.135Z,0.73
2023-11-03T15:41:04.691Z,0.60
2023-11-03T15:44:07.033Z,0.98
2023-11-03T15:47:11.065Z,1.02
2023-11-03T15:50:18.835Z,1.10
2023-11-03T15:53:22.408Z,0.50
2023-11-03T15:56:25.712Z,1.05
2023-11-03T15:59:28.078Z,0.63
2023-11-03T16:02:30.456Z,0.75
2023-11-03T16:05:36.909Z,1.00
2023-11-03T16:08:39.422Z,1.00
2023-11-03T16:11:42.437Z,1.00
2023-11-03T16:14:44.722Z,0.25
2023-11-03T16:17:47.218Z,0.70
2023-11-03T16:20:49.593Z,0.45
2023-11-03T16:23:51.978Z,0.50
2023-11-03T16:26:54.255Z,1.02
2023-11-03T16:29:58.503Z,1.10
2023-11-03T16:33:01.028Z,0.43
2023-11-03T16:36:03.892Z,0.65
2023-11-03T16:39:08.635Z,0.67
2023-11-03T16:42:10.974Z,0.63
2023-11-03T16:45:13.810Z,0.82
2023-11-03T16:48:23.830Z,0.82
2023-11-03T16:51:28.559Z,0.80
2023-11-03T16:54:31.406Z,0.30
2023-11-03T16:57:33.772Z,0.63
2023-11-03T17:00:44.574Z,0.50
2023-11-03T17:03:47.597Z,0.55
2023-11-03T17:06:49.898Z,0.75
2023-11-03T17:09:53.992Z,0.30
2023-11-03T17:13:00.418Z,0.50
2023-11-03T17:16:04.695Z,0.10
2023-11-03T17:19:07.923Z,0.47
2023-11-03T17:22:10.987Z,0.28
2023-11-03T17:25:13.790Z,0.60
2023-11-03T17:28:16.314Z,0.30
2023-11-03T17:31:20.528Z,0.50
2023-11-03T17:34:23.024Z,0.30
2023-11-03T17:37:27.602Z,0.40
2023-11-03T17:40:32.529Z,0.30
2023-11-03T17:43:34.950Z,0.20
2023-11-03T17:46:37.931Z,0.30
2023-11-03T17:49:40.382Z,0.30
2023-11-03T17:52:43.032Z,0.20
2023-11-03T17:55:45.349Z,0.20
2023-11-03T17:58:47.684Z,0.30
2023-11-03T18:01:50.409Z,0.45
2023-11-03T18:04:52.964Z,0.10
2023-11-03T18:07:55.526Z,0.30
2023-11-03T18:10:58.295Z,0.40
2023-11-03T18:14:00.630Z,0.50
2023-11-03T18:17:03.382Z,0.35
2023-11-03T18:20:17.970Z,0.20
2023-11-03T18:23:20.366Z,0.32
2023-11-03T18:26:23.976Z,0.20
2023-11-03T18:29:26.515Z,0.30
2023-11-03T18:32:29.505Z,0.28
2023-11-03T18:35:31.948Z,0.65
2023-11-03T18:38:34.358Z,0.25
2023-11-03T18:41:36.957Z,0.20
2023-11-03T18:44:39.411Z,0.40
2023-11-03T18:47:42.488Z,0.25
2023-11-03T18:58:14.681Z,0.23
2023-11-03T19:00:47.324Z,0.98
2023-11-03T19:07:30.483Z,0.70
2023-11-03T19:10:11.497Z,0.50
2023-11-03T19:13:13.788Z,0.60
2023-11-03T19:16:16.484Z,0.60
2023-11-03T19:19:19.243Z,0.60
2023-11-03T19:22:21.611Z,0.52
2023-11-03T19:25:24.102Z,0.57
2023-11-03T19:28:26.362Z,1.20
2023-11-03T19:31:29.823Z,0.50
2023-11-03T19:34:32.265Z,0.80
2023-11-03T19:37:35.789Z,0.30
2023-11-03T19:40:39.063Z,0.45
2023-11-03T19:43:42.259Z,0.77
2023-11-03T19:46:44.531Z,0.70
2023-11-03T19:49:47.106Z,0.98
2023-11-03T19:52:49.503Z,1.13
2023-11-03T19:55:53.041Z,1.40
2023-11-03T19:58:55.550Z,1.30
2023-11-03T20:01:57.946Z,1.40
2023-11-03T20:05:00.365Z,1.85
2023-11-03T20:08:03.042Z,1.38
2023-11-03T20:11:06.146Z,1.52
2023-11-03T20:14:08.675Z,1.20
2023-11-03T20:17:11.308Z,1.10
2023-11-03T20:20:14.366Z,1.13
2023-11-03T20:23:16.811Z,1.02
2023-11-03T20:26:22.924Z,0.90
2023-11-03T20:29:26.285Z,1.40
2023-11-03T20:32:28.801Z,0.90
2023-11-03T20:35:31.078Z,0.95
2023-11-03T20:38:34.094Z,1.27
2023-11-03T20:41:36.598Z,1.33
2023-11-03T20:44:39.051Z,1.10
2023-11-03T20:47:41.714Z,0.95
2023-11-03T20:50:44.108Z,1.15
2023-11-03T20:53:46.530Z,1.27
2023-11-03T20:56:49.082Z,1.00
2023-11-03T20:59:51.631Z,1.17
2023-11-03T21:02:55.060Z,0.75
2023-11-03T21:05:59.708Z,1.33
2023-11-03T21:09:02.231Z,0.85
2023-11-03T21:12:04.843Z,1.13
2023-11-03T21:15:08.654Z,1.00
2023-11-03T21:18:12.728Z,1.55
2023-11-03T21:21:15.136Z,2.40
2023-11-03T21:24:17.586Z,2.50
2023-11-03T21:27:19.919Z,1.55
2023-11-03T21:30:24.453Z,1.83
2023-11-03T21:33:30.889Z,2.03
2023-11-03T21:36:33.233Z,1.98
2023-11-03T21:39:35.566Z,1.70
2023-11-03T21:42:38.021Z,1.80
2023-11-03T21:45:40.444Z,1.40
2023-11-03T21:48:43.010Z,1.67
2023-11-03T21:51:45.416Z,1.63
2023-11-03T21:54:48.461Z,1.23
2023-11-03T21:57:50.812Z,0.70
2023-11-03T22:00:53.140Z,0.77
2023-11-03T22:03:55.533Z,1.23
2023-11-03T22:06:58.157Z,1.00
2023-11-03T22:10:00.398Z,0.82
2023-11-03T22:13:02.678Z,1.08
2023-11-03T22:16:05.253Z,1.17
2023-11-03T22:19:07.722Z,0.93
2023-11-03T22:22:10.063Z,0.70
2023-11-03T22:25:12.435Z,0.77
2023-11-03T22:28:15.128Z,1.40
2023-11-03T22:31:17.395Z,0.90
2023-11-03T22:34:20.106Z,0.82
2023-11-03T22:37:23.341Z,1.25
2023-11-03T22:40:25.598Z,1.20
2023-11-03T22:43:27.837Z,1.15
2023-11-03T22:46:30.603Z,1.40
2023-11-03T22:49:32.993Z,1.13
2023-11-03T22:52:35.548Z,0.90
2023-11-03T22:55:38.185Z,0.93
2023-11-03T22:58:40.481Z,0.70
2023-11-03T23:01:43.309Z,0.63
2023-11-03T23:04:45.662Z,0.90
2023-11-03T23:07:47.989Z,1.23
2023-11-03T23:10:50.645Z,1.17
2023-11-03T23:13:52.973Z,1.30
2023-11-03T23:16:55.478Z,1.57
2023-11-03T23:19:57.788Z,1.73
2023-11-03T23:23:00.147Z,1.75
2023-11-03T23:26:02.496Z,1.20
2023-11-03T23:29:04.826Z,1.10
2023-11-03T23:32:07.230Z,1.20
2023-11-03T23:35:09.855Z,1.52
2023-11-03T23:38:12.325Z,1.20
2023-11-03T23:41:14.665Z,1.70
2023-11-03T23:44:16.933Z,1.38
2023-11-03T23:47:19.219Z,1.47
2023-11-03T23:50:21.512Z,1.27
2023-11-03T23:53:23.909Z,1.73
2023-11-03T23:56:26.283Z,2.13
2023-11-03T23:59:31.930Z,1.85
